createdAt,value
2023-04-10T00:02:16.950Z,101823.25
2023-04-10T00:04:49.861Z,101812.69
2023-04-10T00:07:22.495Z,101808.28
2023-04-10T00:09:55.191Z,101795.94
2023-04-10T00:12:27.895Z,101793.31
2023-04-10T00:15:00.442Z,101788.03
2023-04-10T00:17:33.054Z,101779.19
2023-04-10T00:20:06.772Z,101788.00
2023-04-10T00:22:42.919Z,101773.03
2023-04-10T00:25:15.730Z,101773.94
2023-04-10T00:27:48.418Z,101777.44
2023-04-10T00:30:21.594Z,101773.03
2023-04-10T00:32:54.248Z,101771.28
2023-04-10T00:35:26.914Z,101765.97
2023-04-10T00:37:59.474Z,101760.72
2023-04-10T00:40:32.095Z,101759.81
2023-04-10T00:43:04.869Z,101758.97
2023-04-10T00:45:40.788Z,101752.75
2023-04-10T00:48:13.423Z,101754.53
2023-04-10T00:50:47.436Z,101754.53
2023-04-10T00:53:20.532Z,101745.75
2023-04-10T00:55:54.195Z,101745.75
2023-04-10T00:58:26.863Z,101751.03
2023-04-10T01:00:59.479Z,101754.56
2023-04-10T01:03:32.295Z,101753.66
2023-04-10T01:06:23.822Z,101746.63
2023-04-10T01:09:16.703Z,101746.63
2023-04-10T01:11:59.796Z,101743.09
2023-04-10T01:15:04.540Z,101748.38
2023-04-10T01:17:56.209Z,101742.22
2023-04-10T01:20:37.710Z,101744.88
2023-04-10T01:23:31.690Z,101730.78
2023-04-10T01:26:08.709Z,101729.91
2023-04-10T01:28:57.060Z,101731.69
2023-04-10T01:31:53.760Z,101735.19
2023-04-10T01:34:35.368Z,101727.25
2023-04-10T01:37:31.055Z,101730.75
2023-04-10T01:40:08.284Z,101729.88
2023-04-10T01:42:57.488Z,101727.22
2023-04-10T01:45:30.080Z,101716.66
2023-04-10T01:48:02.763Z,101714.00
2023-04-10T01:50:36.288Z,101713.13
2023-04-10T01:53:10.174Z,101703.47
2023-04-10T01:55:43.710Z,101703.44
2023-04-10T01:58:16.573Z,101701.69
2023-04-10T02:00:49.304Z,101694.66
2023-04-10T02:03:22.020Z,101686.72
2023-04-10T02:06:50.455Z,101678.81
2023-04-10T02:09:43.091Z,101681.44
2023-04-10T02:12:39.042Z,101677.91
2023-04-10T02:15:12.859Z,101676.16
2023-04-10T02:17:47.023Z,101669.97
2023-04-10T02:20:20.207Z,101674.41
2023-04-10T02:22:54.167Z,101666.47
2023-04-10T02:25:26.941Z,101667.38
2023-04-10T02:28:07.912Z,101660.31
2023-04-10T02:30:40.428Z,101657.66
2023-04-10T02:33:12.964Z,101665.59
2023-04-10T02:35:45.538Z,101667.34
2023-04-10T02:38:18.146Z,101661.22
2023-04-10T02:40:50.694Z,101660.31
2023-04-10T02:43:23.365Z,101662.06
2023-04-10T02:45:55.918Z,101667.34
2023-04-10T02:48:28.653Z,101667.38
2023-04-10T02:51:01.269Z,101668.22
2023-04-10T02:53:34.316Z,101660.31
2023-04-10T02:56:08.083Z,101675.28
2023-04-10T02:58:45.409Z,101657.66
2023-04-10T03:01:17.954Z,101659.44
2023-04-10T03:03:50.681Z,101656.78
2023-04-10T03:06:27.141Z,101657.69
2023-04-10T03:08:59.828Z,101651.53
2023-04-10T03:11:32.356Z,101662.94
2023-04-10T03:14:05.350Z,101662.97
2023-04-10T03:16:38.015Z,101664.72
2023-04-10T03:19:12.602Z,101675.25
2023-04-10T03:21:46.838Z,101662.03
2023-04-10T03:24:19.351Z,101667.34
2023-04-10T03:26:52.021Z,101662.94
2023-04-10T03:29:24.674Z,101669.06
2023-04-10T03:31:57.186Z,101662.06
2023-04-10T03:34:30.242Z,101669.03
2023-04-10T03:37:03.342Z,101664.66
2023-04-10T03:39:37.248Z,101651.47
2023-04-10T03:42:09.774Z,101649.69
2023-04-10T03:44:42.328Z,101637.38
2023-04-10T03:47:14.841Z,101648.81
2023-04-10T03:49:47.482Z,101640.88
2023-04-10T03:52:20.993Z,101628.56
2023-04-10T03:54:54.662Z,101638.25
2023-04-10T03:57:27.278Z,101625.94
2023-04-10T03:59:59.873Z,101635.63
2023-04-10T04:02:32.426Z,101633.81
2023-04-10T04:05:05.607Z,101625.06
2023-04-10T04:07:38.208Z,101620.63
2023-04-10T04:10:11.047Z,101625.00
2023-04-10T04:12:43.569Z,101630.25
2023-04-10T04:15:16.464Z,101618.88
2023-04-10T04:17:49.077Z,101618.81
2023-04-10T04:20:21.714Z,101610.88
2023-04-10T04:22:54.216Z,101613.56
2023-04-10T04:25:27.188Z,101610.94
2023-04-10T04:27:59.689Z,101619.75
2023-04-10T04:30:32.462Z,101602.13
2023-04-10T04:33:05.016Z,101605.66
2023-04-10T04:35:37.665Z,101607.44
2023-04-10T04:38:10.406Z,101599.53
2023-04-10T04:40:43.258Z,101602.16
2023-04-10T04:43:15.974Z,101602.13
2023-04-10T04:45:48.534Z,101603.91
2023-04-10T04:48:21.090Z,101595.13
2023-04-10T04:50:53.607Z,101600.41
2023-04-10T04:53:26.163Z,101600.41
2023-04-10T04:55:58.805Z,101599.53
2023-04-10T04:58:31.380Z,101593.34
2023-04-10T05:01:04.205Z,101596.03
2023-04-10T05:03:36.883Z,101596.00
2023-04-10T05:06:09.540Z,101585.47
2023-04-10T05:08:42.091Z,101591.63
2023-04-10T05:11:14.707Z,101578.44
2023-04-10T05:13:47.327Z,101578.41
2023-04-10T05:16:19.997Z,101571.38
2023-04-10T05:18:53.090Z,101572.28
2023-04-10T05:21:26.054Z,101566.13
2023-04-10T05:23:58.576Z,101560.81
2023-04-10T05:26:31.128Z,101559.97
2023-04-10T05:29:04.230Z,101565.25
2023-04-10T05:31:36.884Z,101573.19
2023-04-10T05:34:09.543Z,101569.66
2023-04-10T05:36:42.115Z,101570.56
2023-04-10T05:39:15.767Z,101569.66
2023-04-10T05:41:48.288Z,101566.16
2023-04-10T05:44:20.882Z,101567.06
2023-04-10T05:46:53.548Z,101574.94
2023-04-10T05:49:26.203Z,101565.28
2023-04-10T05:51:58.735Z,101559.97
2023-04-10T05:54:31.430Z,101566.13
2023-04-10T05:57:04.150Z,101571.38
2023-04-10T05:59:36.681Z,101580.16
2023-04-10T06:02:09.290Z,101578.34
2023-04-10T06:04:42.519Z,101575.69
2023-04-10T06:07:15.228Z,101578.31
2023-04-10T06:09:47.758Z,101576.50
2023-04-10T06:12:20.589Z,101572.97
2023-04-10T06:14:53.195Z,101575.59
2023-04-10T06:17:25.966Z,101569.31
2023-04-10T06:20:01.018Z,101567.47
2023-04-10T06:22:33.524Z,101570.06
2023-04-10T06:25:07.297Z,101561.31
2023-04-10T06:27:40.745Z,101553.28
2023-04-10T06:30:13.255Z,101540.94
2023-04-10T06:32:46.152Z,101536.47
2023-04-10T06:35:18.812Z,101533.66
2023-04-10T06:37:51.320Z,101542.59
2023-04-10T06:40:23.822Z,101533.59
2023-04-10T06:42:56.957Z,101526.47
2023-04-10T06:45:30.667Z,101524.59
2023-04-10T06:48:03.343Z,101520.97
2023-04-10T06:50:35.914Z,101513.88
2023-04-10T06:53:08.472Z,101516.44
2023-04-10T06:55:41.026Z,101508.34
2023-04-10T06:58:13.506Z,101502.09
2023-04-10T07:00:46.461Z,101498.56
2023-04-10T07:03:19.006Z,101494.91
2023-04-10T07:05:51.571Z,101493.34
2023-04-10T07:08:24.286Z,101488.63
2023-04-10T07:10:58.643Z,101478.97
2023-04-10T07:13:31.567Z,101476.25
2023-04-10T07:16:04.718Z,101470.97
2023-04-10T07:18:38.573Z,101472.56
2023-04-10T07:21:14.641Z,101461.13
2023-04-10T07:23:47.390Z,101462.69
2023-04-10T07:26:19.909Z,101459.88
2023-04-10T07:28:53.111Z,101459.06
2023-04-10T07:31:25.955Z,101459.84
2023-04-10T07:33:58.507Z,101446.38
2023-04-10T07:36:31.862Z,101457.47
2023-04-10T07:39:04.477Z,101443.53
2023-04-10T07:41:36.984Z,101439.16
2023-04-10T07:44:09.600Z,101437.91
2023-04-10T07:46:42.416Z,101428.75
2023-04-10T07:49:14.962Z,101424.59
2023-04-10T07:51:47.477Z,101420.13
2023-04-10T07:54:19.983Z,101411.69
2023-04-10T07:56:53.250Z,101401.38
2023-04-10T07:59:28.514Z,101402.53
2023-04-10T08:02:01.138Z,101401.28
2023-04-10T08:04:34.185Z,101392.00
2023-04-10T08:07:06.886Z,101383.56
2023-04-10T08:09:39.384Z,101391.22
2023-04-10T08:12:11.918Z,101384.56
2023-04-10T08:14:45.220Z,101378.84
2023-04-10T08:17:17.769Z,101380.84
2023-04-10T08:19:50.372Z,101373.84
2023-04-10T08:22:22.921Z,101381.00
2023-04-10T08:24:55.590Z,101367.19
2023-04-10T08:27:28.585Z,101380.25
2023-04-10T08:30:01.172Z,101373.31
2023-04-10T08:32:33.827Z,101378.13
2023-04-10T08:35:06.890Z,101374.28
2023-04-10T08:37:39.541Z,101374.16
2023-04-10T08:40:12.393Z,101377.69
2023-04-10T08:42:44.961Z,101368.69
2023-04-10T08:45:17.529Z,101357.94
2023-04-10T08:47:53.191Z,101351.91
2023-04-10T08:50:26.438Z,101353.88
2023-04-10T08:53:11.639Z,101357.63
2023-04-10T08:55:45.933Z,101361.06
2023-04-10T08:58:18.769Z,101373.94
2023-04-10T09:00:51.597Z,101359.91
2023-04-10T09:03:25.636Z,101362.69
2023-04-10T09:06:06.542Z,101361.69
2023-04-10T09:08:39.099Z,101349.03
2023-04-10T09:11:13.141Z,101353.44
2023-04-10T09:13:46.274Z,101351.09
2023-04-10T09:16:30.466Z,101353.00
2023-04-10T09:19:05.104Z,101347.72
2023-04-10T09:21:39.158Z,101342.38
2023-04-10T09:24:13.169Z,101337.41
2023-04-10T09:26:45.682Z,101339.13
2023-04-10T09:29:19.191Z,101325.34
2023-04-10T09:31:52.060Z,101334.44
2023-04-10T09:34:24.582Z,101308.16
2023-04-10T09:37:01.240Z,101313.63
2023-04-10T09:39:36.873Z,101311.22
2023-04-10T09:42:11.507Z,101294.28
2023-04-10T09:44:44.149Z,101284.63
2023-04-10T09:47:21.359Z,101286.31
2023-04-10T09:49:57.171Z,101270.88
2023-04-10T09:52:32.242Z,101272.84
2023-04-10T09:55:10.210Z,101270.59
2023-04-10T09:57:44.967Z,101271.19
2023-04-10T10:00:18.040Z,101268.44
2023-04-10T10:02:52.522Z,101272.06
2023-04-10T10:05:30.456Z,101260.00
2023-04-10T10:08:03.092Z,101270.81
2023-04-10T10:10:41.795Z,101267.19
2023-04-10T10:13:28.181Z,101259.97
2023-04-10T10:16:34.841Z,101243.16
2023-04-10T10:19:22.087Z,101238.94
2023-04-10T10:21:56.091Z,101241.16
2023-04-10T10:24:33.323Z,101239.75
2023-04-10T10:27:09.908Z,101241.50
2023-04-10T10:29:45.871Z,101234.69
2023-04-10T10:32:20.717Z,101226.88
2023-04-10T10:34:54.275Z,101225.63
2023-04-10T10:37:29.944Z,101224.06
2023-04-10T10:40:16.637Z,101218.72
2023-04-10T10:43:14.992Z,101210.34
2023-04-10T10:46:17.766Z,101207.03
2023-04-10T10:48:58.849Z,101202.97
2023-04-10T10:51:50.601Z,101198.28
2023-04-10T10:54:34.728Z,101191.78
2023-04-10T10:57:46.794Z,101191.91
2023-04-10T11:00:24.925Z,101168.75
2023-04-10T11:03:10.675Z,101180.50
2023-04-10T11:06:02.817Z,101170.13
2023-04-10T11:08:49.608Z,101170.88
2023-04-10T11:11:28.408Z,101171.16
2023-04-10T11:14:01.108Z,101163.44
2023-04-10T11:16:34.746Z,101158.00
2023-04-10T11:22:10.598Z,101129.84
2023-04-10T11:25:01.940Z,101135.78
2023-04-10T11:27:47.820Z,101133.50
2023-04-10T11:30:34.885Z,101122.31
2023-04-10T11:33:07.709Z,101108.91
2023-04-10T11:35:40.549Z,101119.22
2023-04-10T11:38:16.986Z,101120.47
2023-04-10T11:40:59.636Z,101101.69
2023-04-10T11:43:33.829Z,101107.00
2023-04-10T11:46:08.097Z,101103.88
2023-04-10T11:48:41.070Z,101099.34
2023-04-10T11:51:14.725Z,101095.13
2023-04-10T11:53:47.306Z,101096.81
2023-04-10T11:56:22.055Z,101093.81
2023-04-10T11:58:55.309Z,101092.53
2023-04-10T12:01:28.287Z,101091.22
2023-04-10T12:04:01.869Z,101087.94
2023-04-10T12:06:35.592Z,101078.22
2023-04-10T12:09:20.230Z,101077.69
2023-04-10T12:11:55.987Z,101065.88
2023-04-10T12:14:41.800Z,101075.28
2023-04-10T12:17:14.553Z,101065.09
2023-04-10T12:19:47.229Z,101067.53
2023-04-10T12:22:20.860Z,101060.88
2023-04-10T12:24:53.713Z,101055.81
2023-04-10T12:27:28.859Z,101046.84
2023-04-10T12:30:08.600Z,101050.75
2023-04-10T12:32:41.182Z,101042.00
2023-04-10T12:35:13.803Z,101041.19
2023-04-10T12:37:54.537Z,101044.22
2023-04-10T12:40:27.644Z,101035.44
2023-04-10T12:43:00.239Z,101035.38
2023-04-10T12:45:45.529Z,101028.88
2023-04-10T12:48:24.462Z,101029.22
2023-04-10T12:50:57.180Z,101025.91
2023-04-10T12:53:30.312Z,101017.75
2023-04-10T12:56:06.527Z,101013.41
2023-04-10T12:58:42.383Z,101020.44
2023-04-10T13:01:15.037Z,101009.44
2023-04-10T13:03:49.058Z,101004.25
2023-04-10T13:06:21.790Z,101000.78
2023-04-10T13:08:56.079Z,100994.91
2023-04-10T13:11:28.827Z,100973.38
2023-04-10T13:14:01.382Z,100983.16
2023-04-10T13:16:34.738Z,100967.34
2023-04-10T13:19:07.316Z,100975.66
2023-04-10T13:21:41.258Z,100967.94
2023-04-10T13:24:16.018Z,100950.69
2023-04-10T13:26:49.092Z,100956.28
2023-04-10T13:29:21.648Z,100946.84
2023-04-10T13:31:54.339Z,100941.31
2023-04-10T13:34:26.961Z,100935.13
2023-04-10T13:37:00.217Z,100928.28
2023-04-10T13:39:32.853Z,100931.06
2023-04-10T13:42:05.575Z,100914.84
2023-04-10T13:44:38.139Z,100910.00
2023-04-10T13:47:10.795Z,100911.91
2023-04-10T13:49:43.980Z,100902.75
2023-04-10T13:52:16.516Z,100881.94
2023-04-10T13:54:49.050Z,100879.59
2023-04-10T13:57:21.616Z,100872.38
2023-04-10T13:59:54.209Z,100876.19
2023-04-10T14:02:27.007Z,100873.22
2023-04-10T14:04:59.635Z,100858.50
2023-04-10T14:07:33.200Z,100863.38
2023-04-10T14:10:07.418Z,100855.81
2023-04-10T14:12:40.344Z,100862.41
2023-04-10T14:15:12.850Z,100843.22
2023-04-10T14:17:45.729Z,100861.53
2023-04-10T14:20:18.287Z,100869.41
2023-04-10T14:22:53.627Z,100864.06
2023-04-10T14:25:26.188Z,100864.41
2023-04-10T14:27:59.341Z,100860.16
2023-04-10T14:30:32.948Z,100849.53
2023-04-10T14:33:05.735Z,100856.16
2023-04-10T14:35:38.321Z,100844.00
2023-04-10T14:38:11.169Z,100851.13
2023-04-10T14:40:45.778Z,100846.66
2023-04-10T14:43:19.313Z,100845.59
2023-04-10T14:45:51.882Z,100857.28
2023-04-10T14:48:24.821Z,100836.72
2023-04-10T14:50:58.997Z,100834.06
2023-04-10T14:53:31.554Z,100818.56
2023-04-10T14:56:15.501Z,100818.75
2023-04-10T14:58:48.120Z,100828.53
2023-04-10T15:01:20.707Z,100818.28
2023-04-10T15:03:53.721Z,100816.66
2023-04-10T15:06:28.033Z,100813.00
2023-04-10T15:09:01.044Z,100793.25
2023-04-10T15:11:33.582Z,100780.50
2023-04-10T15:14:07.386Z,100763.06
2023-04-10T15:16:41.459Z,100765.63
2023-04-10T15:19:14.133Z,100764.59
2023-04-10T15:21:47.107Z,100762.75
2023-04-10T15:24:19.702Z,100753.53
2023-04-10T15:26:53.633Z,100752.00
2023-04-10T15:29:26.192Z,100752.22
2023-04-10T15:32:01.642Z,100747.56
2023-04-10T15:34:34.247Z,100736.06
2023-04-10T15:37:07.974Z,100740.09
2023-04-10T15:39:43.459Z,100740.56
2023-04-10T15:42:16.851Z,100744.56
2023-04-10T15:44:52.452Z,100739.72
2023-04-10T15:47:25.028Z,100728.75
2023-04-10T15:49:59.958Z,100732.78
2023-04-10T15:52:33.801Z,100734.03
2023-04-10T15:55:09.390Z,100733.09
2023-04-10T15:57:42.012Z,100734.84
2023-04-10T16:00:15.222Z,100722.84
2023-04-10T16:02:47.878Z,100725.78
2023-04-10T16:05:20.647Z,100713.50
2023-04-10T16:07:55.251Z,100702.16
2023-04-10T16:10:27.791Z,100692.63
2023-04-10T16:13:04.166Z,100695.22
2023-04-10T16:15:38.694Z,100690.63
2023-04-10T16:18:11.289Z,100692.81
2023-04-10T16:20:44.252Z,100701.13
2023-04-10T16:23:16.827Z,100690.44
2023-04-10T16:25:49.406Z,100706.84
2023-04-10T16:28:22.921Z,100709.91
2023-04-10T16:30:56.818Z,100705.66
2023-04-10T16:33:30.683Z,100724.63
2023-04-10T16:36:04.745Z,100725.66
2023-04-10T16:38:37.323Z,100726.59
2023-04-10T16:41:10.263Z,100739.09
2023-04-10T16:43:42.941Z,100744.34
2023-04-10T16:46:15.607Z,100747.03
2023-04-10T16:48:48.178Z,100755.03
2023-04-10T16:51:20.723Z,100754.44
2023-04-10T16:53:53.580Z,100740.88
2023-04-10T16:56:26.393Z,100744.00
2023-04-10T16:58:59.041Z,100747.31
2023-04-10T17:01:31.691Z,100758.53
2023-04-10T17:04:04.327Z,100767.97
2023-04-10T17:06:36.905Z,100770.34
2023-04-10T17:09:09.392Z,100771.41
2023-04-10T17:11:42.346Z,100768.66
2023-04-10T17:14:15.980Z,100775.63
2023-04-10T17:16:48.484Z,100779.41
2023-04-10T17:19:21.033Z,100787.66
2023-04-10T17:21:54.426Z,100783.41
2023-04-10T17:24:27.280Z,100781.84
2023-04-10T17:27:00.973Z,100775.88
2023-04-10T17:29:40.447Z,100760.59
2023-04-10T17:32:13.151Z,100757.69
2023-04-10T17:34:46.496Z,100765.16
2023-04-10T17:37:19.763Z,100775.34
2023-04-10T17:39:54.223Z,100774.81
2023-04-10T17:42:27.270Z,100780.78
2023-04-10T17:44:59.831Z,100774.72
2023-04-10T17:47:32.403Z,100772.59
2023-04-10T17:50:05.812Z,100774.63
2023-04-10T17:52:38.514Z,100759.41
2023-04-10T17:55:11.322Z,100764.72
2023-04-10T17:57:43.842Z,100744.34
2023-04-10T18:00:20.022Z,100733.34
2023-04-10T18:02:58.312Z,100717.25
2023-04-10T18:05:31.009Z,100709.97
2023-04-10T18:08:03.900Z,100698.22
2023-04-10T18:10:36.463Z,100706.50
2023-04-10T18:13:09.037Z,100696.34
2023-04-10T18:15:41.504Z,100677.56
2023-04-10T18:18:14.188Z,100667.38
2023-04-10T18:20:46.864Z,100653.84
2023-04-10T18:23:19.426Z,100658.31
2023-04-10T18:25:55.718Z,100670.56
2023-04-10T18:28:28.361Z,100681.03
2023-04-10T18:31:01.113Z,100676.88
2023-04-10T18:33:34.030Z,100675.88
2023-04-10T18:36:07.465Z,100678.75
2023-04-10T18:38:42.736Z,100680.00
2023-04-10T18:41:15.493Z,100682.34
2023-04-10T18:43:57.407Z,100700.88
2023-04-10T18:46:34.308Z,100709.22
2023-04-10T18:49:07.630Z,100677.94
2023-04-10T18:51:40.863Z,100665.59
2023-04-10T18:54:13.490Z,100674.38
2023-04-10T18:56:46.256Z,100699.22
2023-04-10T18:59:18.765Z,100713.09
2023-04-10T19:01:51.432Z,100702.25
2023-04-10T19:04:24.594Z,100659.66
2023-04-10T19:06:57.537Z,100637.22
2023-04-10T19:09:30.166Z,100622.53
2023-04-10T19:12:03.100Z,100626.72
2023-04-10T19:14:42.991Z,100634.91
2023-04-10T19:17:15.899Z,100649.16
2023-04-10T19:19:51.044Z,100669.78
2023-04-10T19:22:29.630Z,100683.19
2023-04-10T19:25:02.432Z,100672.56
2023-04-10T19:27:35.227Z,100650.66
2023-04-10T19:30:08.780Z,100650.56
2023-04-10T19:32:44.619Z,100674.00
2023-04-10T19:35:17.260Z,100649.75
2023-04-10T19:37:51.886Z,100643.25
2023-04-10T19:40:24.527Z,100619.09
2023-04-10T19:43:01.184Z,100611.22
2023-04-10T19:45:44.712Z,100624.63
2023-04-10T19:48:31.433Z,100629.91
2023-04-10T19:51:13.938Z,100632.41
2023-04-10T19:53:46.817Z,100622.25
2023-04-10T19:56:23.319Z,100631.66
2023-04-10T19:58:56.471Z,100640.00
2023-04-10T20:01:31.957Z,100648.59
2023-04-10T20:04:25.261Z,100634.97
2023-04-10T20:07:09.480Z,100635.06
2023-04-10T20:09:53.309Z,100635.94
2023-04-10T20:12:30.147Z,100628.94
2023-04-10T20:15:10.029Z,100631.88
2023-04-10T20:17:44.244Z,100611.28
2023-04-10T20:20:24.500Z,100608.91
2023-04-10T20:22:59.904Z,100608.31
2023-04-10T20:25:35.064Z,100611.78
2023-04-10T20:28:11.168Z,100619.59
2023-04-10T20:30:47.345Z,100622.31
2023-04-10T20:33:20.037Z,100628.00
2023-04-10T20:35:55.767Z,100626.06
2023-04-10T20:38:31.453Z,100628.13
2023-04-10T20:41:06.394Z,100627.91
2023-04-10T20:43:39.057Z,100615.59
2023-04-10T20:46:11.709Z,100634.34
2023-04-10T20:48:47.266Z,100635.34
2023-04-10T20:51:19.844Z,100624.81
2023-04-10T20:53:52.616Z,100615.25
2023-04-10T20:56:33.087Z,100606.47
2023-04-10T20:59:15.453Z,100605.66
2023-04-10T21:01:48.332Z,100623.66
2023-04-10T21:04:21.132Z,100610.88
2023-04-10T21:06:53.826Z,100594.53
2023-04-10T21:09:42.310Z,100607.72
2023-04-10T21:12:32.664Z,100611.47
2023-04-10T21:15:13.399Z,100621.84
2023-04-10T21:17:47.557Z,100636.38
2023-04-10T21:20:22.152Z,100628.50
2023-04-10T21:22:54.666Z,100614.88
2023-04-10T21:25:28.084Z,100626.06
2023-04-10T21:28:01.790Z,100611.34
2023-04-10T21:30:34.346Z,100607.38
2023-04-10T21:33:06.926Z,100610.81
2023-04-10T21:35:43.651Z,100589.59
2023-04-10T21:38:16.249Z,100599.94
2023-04-10T21:40:55.594Z,100617.03
2023-04-10T21:43:28.086Z,100631.41
2023-04-10T21:46:02.807Z,100630.44
2023-04-10T21:48:35.689Z,100621.47
2023-04-10T21:51:12.458Z,100622.38
2023-04-10T21:53:45.131Z,100611.97
2023-04-10T21:56:18.907Z,100607.66
2023-04-10T21:58:52.945Z,100612.69
2023-04-10T22:01:26.217Z,100601.41
2023-04-10T22:04:01.331Z,100596.94
2023-04-10T22:06:34.018Z,100599.66
2023-04-10T22:09:09.356Z,100598.69
2023-04-10T22:11:42.009Z,100600.44
2023-04-10T22:14:20.051Z,100605.91
2023-04-10T22:16:54.115Z,100606.22
2023-04-10T22:19:29.419Z,100615.09
2023-04-10T22:22:03.262Z,100606.03
2023-04-10T22:24:38.515Z,100609.53
2023-04-10T22:27:11.192Z,100614.88
2023-04-10T22:29:47.686Z,100613.91
2023-04-10T22:32:25.760Z,100605.66
2023-04-10T22:34:59.885Z,100596.69
2023-04-10T22:37:33.132Z,100597.00
2023-04-10T22:40:06.754Z,100591.69
2023-04-10T22:42:39.319Z,100589.31
2023-04-10T22:45:12.918Z,100582.44
2023-04-10T22:47:45.553Z,100579.56
2023-04-10T22:50:18.412Z,100601.47
2023-04-10T22:52:51.204Z,100592.22
2023-04-10T22:55:23.952Z,100601.78
2023-04-10T22:57:56.537Z,100598.13
2023-04-10T23:00:34.221Z,100598.59
2023-04-10T23:03:06.933Z,100598.78
2023-04-10T23:05:42.587Z,100604.28
2023-04-10T23:08:15.368Z,100607.13
2023-04-10T23:10:47.854Z,100616.56
2023-04-10T23:13:20.563Z,100610.84
2023-04-10T23:15:55.136Z,100614.03
2023-04-10T23:18:27.710Z,100625.81
2023-04-10T23:21:06.599Z,100608.13
2023-04-10T23:23:39.107Z,100621.53
2023-04-10T23:26:11.686Z,100623.09
2023-04-10T23:28:44.211Z,100615.31
2023-04-10T23:31:17.301Z,100620.03
2023-04-10T23:33:49.857Z,100615.41
2023-04-10T23:36:22.328Z,100628.56
2023-04-10T23:38:55.586Z,100613.09
2023-04-10T23:41:28.216Z,100614.94
2023-04-10T23:44:00.790Z,100615.06
2023-04-10T23:46:33.398Z,100624.69
2023-04-10T23:49:05.938Z,100617.59
2023-04-10T23:51:38.510Z,100624.38
2023-04-10T23:54:14.126Z,100634.25
2023-04-10T23:56:46.638Z,100626.53
2023-04-10T23:59:19.221Z,100623.28
